Time;durP1;ratioP1;P1;durP2;ratioP2;P2;SDS_P1;SDS_P2;PMS_P1;PMS_P2;Temp;Humidity;BMP_temperature;BMP_pressure;BME280_temperature;BME280_humidity;BME280_pressure;Samples;Min_cycle;Max_cycle;Signal;HPM_P1;HPM_P2
2022/10/25 00:00:22;;;;;;;0.8;0.8;;;;;;;;;;;;;
2022/10/25 00:02:48;;;;;;;1;0.9;;;;;;;;;;;;;
2022/10/25 00:05:13;;;;;;;0.7;0.7;;;;;;;;;;;;;
2022/10/25 00:07:38;;;;;;;1;0.9;;;;;;;;;;;;;
2022/10/25 00:10:04;;;;;;;1;0.9;;;;;;;;;;;;;
2022/10/25 00:12:31;;;;;;;0.8;0.8;;;;;;;;;;;;;
2022/10/25 00:14:56;;;;;;;1.1;0.9;;;;;;;;;;;;;
2022/10/25 00:17:21;;;;;;;1.3;0.6;;;;;;;;;;;;;
2022/10/25 00:19:46;;;;;;;1.4;0.8;;;;;;;;;;;;;
2022/10/25 00:22:12;;;;;;;0.6;0.6;;;;;;;;;;;;;
2022/10/25 00:24:37;;;;;;;0.6;0.6;;;;;;;;;;;;;
2022/10/25 00:27:03;;;;;;;1.4;0.9;;;;;;;;;;;;;
2022/10/25 00:29:28;;;;;;;0.8;0.6;;;;;;;;;;;;;
2022/10/25 00:31:54;;;;;;;0.7;0.6;;;;;;;;;;;;;
2022/10/25 00:34:19;;;;;;;0.5;0.5;;;;;;;;;;;;;
2022/10/25 00:36:47;;;;;;;0.7;0.6;;;;;;;;;;;;;
2022/10/25 00:39:12;;;;;;;0.7;0.7;;;;;;;;;;;;;
2022/10/25 00:41:37;;;;;;;1.2;0.8;;;;;;;;;;;;;
2022/10/25 00:44:02;;;;;;;1.8;1.4;;;;;;;;;;;;;
2022/10/25 00:46:27;;;;;;;2.4;1.1;;;;;;;;;;;;;
2022/10/25 00:48:54;;;;;;;1;0.9;;;;;;;;;;;;;
2022/10/25 00:51:19;;;;;;;1.6;1.1;;;;;;;;;;;;;
2022/10/25 00:53:44;;;;;;;1.6;1.1;;;;;;;;;;;;;
2022/10/25 00:56:09;;;;;;;1.5;1;;;;;;;;;;;;;
2022/10/25 00:58:34;;;;;;;1.4;1;;;;;;;;;;;;;
2022/10/25 01:00:59;;;;;;;1.3;0.8;;;;;;;;;;;;;
2022/10/25 01:03:24;;;;;;;1.4;1.1;;;;;;;;;;;;;
2022/10/25 01:05:50;;;;;;;7.3;1.1;;;;;;;;;;;;;
2022/10/25 01:08:15;;;;;;;0.9;0.9;;;;;;;;;;;;;
2022/10/25 01:10:40;;;;;;;1.2;0.9;;;;;;;;;;;;;
2022/10/25 01:13:06;;;;;;;1.2;0.9;;;;;;;;;;;;;
2022/10/25 01:15:31;;;;;;;1.1;0.9;;;;;;;;;;;;;
2022/10/25 01:17:56;;;;;;;1.6;0.7;;;;;;;;;;;;;
2022/10/25 01:20:25;;;;;;;0.8;0.7;;;;;;;;;;;;;
2022/10/25 01:22:50;;;;;;;1;0.7;;;;;;;;;;;;;
2022/10/25 01:25:20;;;;;;;1;0.8;;;;;;;;;;;;;
2022/10/25 01:27:45;;;;;;;0.8;0.6;;;;;;;;;;;;;
2022/10/25 01:30:11;;;;;;;0.5;0.5;;;;;;;;;;;;;
2022/10/25 01:32:38;;;;;;;0.5;0.5;;;;;;;;;;;;;
2022/10/25 01:35:03;;;;;;;0.6;0.6;;;;;;;;;;;;;
2022/10/25 01:37:28;;;;;;;2;0.6;;;;;;;;;;;;;
2022/10/25 01:39:54;;;;;;;1.5;0.6;;;;;;;;;;;;;
2022/10/25 01:42:19;;;;;;;0.5;0.5;;;;;;;;;;;;;
2022/10/25 01:44:45;;;;;;;1;0.7;;;;;;;;;;;;;
2022/10/25 01:47:10;;;;;;;0.9;0.8;;;;;;;;;;;;;
2022/10/25 01:49:35;;;;;;;1;0.9;;;;;;;;;;;;;
2022/10/25 01:52:00;;;;;;;2.5;1.1;;;;;;;;;;;;;
2022/10/25 01:54:26;;;;;;;1.4;0.9;;;;;;;;;;;;;
2022/10/25 01:56:50;;;;;;;3.3;1.1;;;;;;;;;;;;;
2022/10/25 01:59:15;;;;;;;1.6;1;;;;;;;;;;;;;
2022/10/25 02:01:40;;;;;;;2.3;1.2;;;;;;;;;;;;;
2022/10/25 02:04:05;;;;;;;4.8;1.6;;;;;;;;;;;;;
2022/10/25 02:06:32;;;;;;;5.9;2;;;;;;;;;;;;;
2022/10/25 02:08:57;;;;;;;4.4;1.8;;;;;;;;;;;;;
2022/10/25 02:11:22;;;;;;;2.3;1.1;;;;;;;;;;;;;
2022/10/25 02:13:48;;;;;;;2.6;1.3;;;;;;;;;;;;;
2022/10/25 02:16:13;;;;;;;2.2;1.1;;;;;;;;;;;;;
2022/10/25 02:18:38;;;;;;;1.5;1;;;;;;;;;;;;;
2022/10/25 02:21:03;;;;;;;0.9;0.9;;;;;;;;;;;;;
2022/10/25 02:23:28;;;;;;;1.4;0.9;;;;;;;;;;;;;
2022/10/25 02:25:55;;;;;;;1.2;0.9;;;;;;;;;;;;;
2022/10/25 02:28:20;;;;;;;1.1;0.9;;;;;;;;;;;;;
2022/10/25 02:30:46;;;;;;;1.7;1.5;;;;;;;;;;;;;
2022/10/25 02:33:11;;;;;;;1.1;1;;;;;;;;;;;;;
2022/10/25 02:35:36;;;;;;;3;1;;;;;;;;;;;;;
2022/10/25 02:38:04;;;;;;;2.1;1;;;;;;;;;;;;;
2022/10/25 02:40:29;;;;;;;1.2;0.7;;;;;;;;;;;;;
2022/10/25 02:42:54;;;;;;;1.3;0.8;;;;;;;;;;;;;
2022/10/25 02:45:19;;;;;;;0.9;0.8;;;;;;;;;;;;;
2022/10/25 02:47:44;;;;;;;1.7;1;;;;;;;;;;;;;
2022/10/25 02:50:09;;;;;;;1.6;1.1;;;;;;;;;;;;;
2022/10/25 02:52:37;;;;;;;1.8;0.8;;;;;;;;;;;;;
2022/10/25 02:55:02;;;;;;;1.1;0.8;;;;;;;;;;;;;
2022/10/25 02:57:27;;;;;;;1.5;0.7;;;;;;;;;;;;;
2022/10/25 02:59:53;;;;;;;2.1;0.7;;;;;;;;;;;;;
2022/10/25 03:02:19;;;;;;;1.1;0.8;;;;;;;;;;;;;
2022/10/25 03:04:44;;;;;;;1.8;1;;;;;;;;;;;;;
2022/10/25 03:07:10;;;;;;;1.4;0.8;;;;;;;;;;;;;
2022/10/25 03:09:35;;;;;;;0.7;0.7;;;;;;;;;;;;;
2022/10/25 03:12:01;;;;;;;0.7;0.7;;;;;;;;;;;;;
2022/10/25 03:14:27;;;;;;;0.6;0.6;;;;;;;;;;;;;
2022/10/25 03:16:52;;;;;;;0.8;0.8;;;;;;;;;;;;;
2022/10/25 03:19:18;;;;;;;0.9;0.7;;;;;;;;;;;;;
2022/10/25 03:21:43;;;;;;;2.1;1;;;;;;;;;;;;;
2022/10/25 03:24:09;;;;;;;1.2;1.1;;;;;;;;;;;;;
2022/10/25 03:26:34;;;;;;;2.6;0.8;;;;;;;;;;;;;
2022/10/25 03:29:00;;;;;;;3.6;1.1;;;;;;;;;;;;;
2022/10/25 03:31:25;;;;;;;2.9;1;;;;;;;;;;;;;
2022/10/25 03:33:51;;;;;;;2.6;1;;;;;;;;;;;;;
2022/10/25 03:36:16;;;;;;;1;0.9;;;;;;;;;;;;;
2022/10/25 03:38:42;;;;;;;0.8;0.7;;;;;;;;;;;;;
2022/10/25 03:41:07;;;;;;;1.1;1;;;;;;;;;;;;;
2022/10/25 03:43:34;;;;;;;1.5;1.3;;;;;;;;;;;;;
2022/10/25 03:45:59;;;;;;;1.8;1;;;;;;;;;;;;;
2022/10/25 03:48:24;;;;;;;1.5;1;;;;;;;;;;;;;
2022/10/25 03:50:49;;;;;;;1.3;1.1;;;;;;;;;;;;;
2022/10/25 03:53:14;;;;;;;1.8;1.4;;;;;;;;;;;;;
2022/10/25 03:55:39;;;;;;;1.1;1;;;;;;;;;;;;;
2022/10/25 03:58:04;;;;;;;1.8;0.8;;;;;;;;;;;;;
2022/10/25 04:02:36;;;;;;;1.4;1.1;;;;;;;10.8;98.47949;941.2283;;;;
2022/10/25 04:05:11;;;;;;;1.7;1.2;;;;;;;10.71;98.82422;941.2525;;;;
2022/10/25 04:07:42;;;;;;;0.9;0.9;;;;;;;10.63;99.51563;941.2045;;;;
2022/10/25 04:10:15;;;;;;;2;0.9;;;;;;;10.41;100;941.1279;;;;
2022/10/25 04:12:40;;;;;;;1;0.7;;;;;;;10.31;100;941.134;;;;
2022/10/25 04:15:12;;;;;;;1.3;1;;;;;;;10.22;100;941.2217;;;;
2022/10/25 04:17:44;;;;;;;1.2;0.9;;;;;;;10.15;100;941.2511;;;;
2022/10/25 04:20:10;;;;;;;1.6;0.9;;;;;;;10.06;100;941.2363;;;;
2022/10/25 04:22:41;;;;;;;1.2;1.1;;;;;;;10.12;100;941.1449;;;;
2022/10/25 04:25:20;;;;;;;2;1.7;;;;;;;10.17;100;941.1728;;;;
2022/10/25 04:27:45;;;;;;;2.1;1.4;;;;;;;10.36;100;941.1746;;;;
2022/10/25 04:30:19;;;;;;;2.5;1.3;;;;;;;10.48;100;941.1847;;;;
2022/10/25 04:32:49;;;;;;;2.2;1.6;;;;;;;10.53;100;941.1844;;;;
2022/10/25 04:35:21;;;;;;;2.2;1.7;;;;;;;10.43;100;941.1479;;;;
2022/10/25 04:37:47;;;;;;;2.8;1.4;;;;;;;10.39;100;941.1909;;;;
2022/10/25 04:40:19;;;;;;;2.1;1.4;;;;;;;10.37;100;941.2264;;;;
2022/10/25 04:42:51;;;;;;;1.1;1;;;;;;;10.4;100;941.265;;;;
2022/10/25 04:45:23;;;;;;;1.3;1.2;;;;;;;10.45;100;941.2479;;;;
2022/10/25 04:47:48;;;;;;;3.5;1.5;;;;;;;10.57;100;941.244;;;;
2022/10/25 04:50:21;;;;;;;1.7;1.2;;;;;;;10.59;100;941.202;;;;
2022/10/25 04:52:52;;;;;;;1.3;1.1;;;;;;;10.68;100;941.1287;;;;
2022/10/25 04:55:24;;;;;;;2.5;1.3;;;;;;;10.54;100;941.113;;;;
2022/10/25 04:57:55;;;;;;;1.9;1.5;;;;;;;10.61;100;941.053;;;;
2022/10/25 05:00:27;;;;;;;2.2;1.4;;;;;;;10.65;100;941.0359;;;;
2022/10/25 05:02:57;;;;;;;1;0.9;;;;;;;10.64;99.82617;941.0542;;;;
2022/10/25 05:05:58;;;;;;;0.8;0.8;;;;;;;10.54;100;941.0945;;;;
2022/10/25 05:08:28;;;;;;;1.4;0.7;;;;;;;10.57;100;941.0178;;;;
2022/10/25 05:10:58;;;;;;;3.3;0.9;;;;;;;10.69;100;941.0803;;;;
2022/10/25 05:13:30;;;;;;;1.9;1.5;;;;;;;10.92;100;941.0731;;;;
2022/10/25 05:15:59;;;;;;;1.4;1.2;;;;;;;11.05;99.24512;941.0527;;;;
2022/10/25 05:18:33;;;;;;;3.3;1.2;;;;;;;11.15;98.31934;941.0244;;;;
2022/10/25 05:21:05;;;;;;;2.3;1.4;;;;;;;11.18;97.60449;941.0184;;;;
2022/10/25 05:23:31;;;;;;;2.8;1.6;;;;;;;11.07;97.51172;940.9327;;;;
2022/10/25 05:25:56;;;;;;;2.5;1.8;;;;;;;10.98;100;940.9911;;;;
2022/10/25 05:28:21;;;;;;;2;1.6;;;;;;;10.94;99.4375;941.0319;;;;
2022/10/25 05:30:51;;;;;;;2.8;1.6;;;;;;;10.76;98.97363;941.0231;;;;
2022/10/25 05:33:16;;;;;;;1.9;1.3;;;;;;;10.62;99.98145;941.0444;;;;
2022/10/25 05:35:47;;;;;;;1.8;1.6;;;;;;;10.51;100;941.0425;;;;
2022/10/25 05:38:18;;;;;;;1.6;1.3;;;;;;;10.42;100;940.9911;;;;
2022/10/25 05:40:46;;;;;;;1.8;1.4;;;;;;;10.37;100;941.0345;;;;
2022/10/25 05:43:11;;;;;;;2.7;1.7;;;;;;;10.31;100;941.0505;;;;
2022/10/25 05:45:36;;;;;;;2.7;1.7;;;;;;;10.17;100;941.1203;;;;
2022/10/25 05:48:04;;;;;;;2.9;1.7;;;;;;;10.16;100;941.1392;;;;
2022/10/25 05:50:29;;;;;;;2.4;1.6;;;;;;;10.28;100;941.1663;;;;
2022/10/25 05:52:58;;;;;;;2.7;1.6;;;;;;;10.33;100;941.2227;;;;
2022/10/25 05:55:23;;;;;;;2.3;1.3;;;;;;;10.3;100;941.2645;;;;
2022/10/25 05:57:51;;;;;;;2.1;1.3;;;;;;;10.21;100;941.2126;;;;
2022/10/25 06:00:16;;;;;;;2.6;1.5;;;;;;;10.36;100;941.3345;;;;
2022/10/25 06:02:45;;;;;;;3.1;1.7;;;;;;;10.47;100;941.358;;;;
2022/10/25 06:05:16;;;;;;;2.3;1.8;;;;;;;10.55;100;941.3998;;;;
2022/10/25 06:07:48;;;;;;;3.3;2.2;;;;;;;10.67;99.79785;941.448;;;;
2022/10/25 06:10:17;;;;;;;4.8;2.5;;;;;;;10.69;99.17383;941.3709;;;;
2022/10/25 06:12:42;;;;;;;5.6;3.8;;;;;;;10.33;99.99512;941.4409;;;;
2022/10/25 06:15:12;;;;;;;6.9;4.3;;;;;;;10.23;100;941.5817;;;;
2022/10/25 06:17:37;;;;;;;6.5;4.5;;;;;;;10.22;100;941.5648;;;;
2022/10/25 06:20:02;;;;;;;5.8;3.4;;;;;;;10.31;100;941.5336;;;;
2022/10/25 06:22:28;;;;;;;1.2;1.1;;;;;;;10.38;100;941.5396;;;;
2022/10/25 06:24:55;;;;;;;4;2.1;;;;;;;10.53;100;941.5467;;;;
2022/10/25 06:27:20;;;;;;;3.5;2.4;;;;;;;10.61;100;941.5681;;;;
2022/10/25 06:29:49;;;;;;;7.7;3.2;;;;;;;10.57;100;941.552;;;;
2022/10/25 06:32:14;;;;;;;4.9;3.1;;;;;;;10.58;100;941.717;;;;
2022/10/25 06:34:43;;;;;;;3.3;2.7;;;;;;;10.72;100;941.7289;;;;
2022/10/25 06:37:08;;;;;;;4.5;3;;;;;;;10.67;100;941.6892;;;;
2022/10/25 06:39:35;;;;;;;5.5;3.3;;;;;;;10.57;100;941.6739;;;;
2022/10/25 06:42:00;;;;;;;6.9;2.3;;;;;;;10.53;100;941.6877;;;;
2022/10/25 06:44:30;;;;;;;4.3;2.6;;;;;;;10.64;100;941.735;;;;
2022/10/25 06:46:59;;;;;;;2.5;2.3;;;;;;;10.82;100;941.7012;;;;
2022/10/25 06:49:23;;;;;;;4.1;2.7;;;;;;;11.07;99.76367;941.7447;;;;
2022/10/25 06:51:50;;;;;;;3.4;2.1;;;;;;;11.16;98.45996;941.7817;;;;
2022/10/25 06:54:16;;;;;;;2.8;2;;;;;;;11.2;97.73438;941.7431;;;;
2022/10/25 06:56:42;;;;;;;3.3;1.9;;;;;;;11.08;98.20215;941.7648;;;;
2022/10/25 06:59:07;;;;;;;3.2;1.8;;;;;;;11.28;98.29102;941.8416;;;;
2022/10/25 07:01:36;;;;;;;2.5;1.8;;;;;;;11.47;96.82324;941.9064;;;;
2022/10/25 07:04:01;;;;;;;2.4;1.7;;;;;;;11.45;96.28125;941.9046;;;;
2022/10/25 07:06:34;;;;;;;2.5;1.6;;;;;;;11.38;95.94531;941.8962;;;;
2022/10/25 07:08:54;;;;;;;2.1;1.2;;;;;;;11.42;96.18555;941.8661;;;;
2022/10/25 07:11:24;;;;;;;1.8;1.6;;;;;;;11.47;95.78223;941.9319;;;;
2022/10/25 07:13:49;;;;;;;1.5;1.4;;;;;;;11.48;95.48633;941.9639;;;;
2022/10/25 07:16:20;;;;;;;2.2;1.4;;;;;;;11.47;95.41797;942.0165;;;;
2022/10/25 07:18:45;;;;;;;2.1;1.2;;;;;;;11.58;98.68066;942.1024;;;;
2022/10/25 07:32:23;;;;;;;2.9;1.4;;;;;;;12.28;92.10059;942.0472;;;;
2022/10/25 07:34:49;;;;;;;1.9;1.2;;;;;;;12.47;91.4043;942.1257;;;;
2022/10/25 07:37:16;;;;;;;1.7;1.2;;;;;;;12.77;90.45898;942.0732;;;;
2022/10/25 07:39:41;;;;;;;2.5;1.2;;;;;;;13.21;87.4707;942.0303;;;;
2022/10/25 07:42:09;;;;;;;3.4;1.2;;;;;;;13.53;86.94043;941.9597;;;;
2022/10/25 07:44:34;;;;;;;3.8;1.2;;;;;;;13.91;85.84961;941.8606;;;;
2022/10/25 07:47:02;;;;;;;2.7;1.5;;;;;;;14.32;82.5127;941.9387;;;;
2022/10/25 07:49:27;;;;;;;2.8;1.6;;;;;;;14.81;81.55566;941.9116;;;;
2022/10/25 07:51:54;;;;;;;3.5;1.5;;;;;;;15.18;80.05566;941.9316;;;;
2022/10/25 07:54:20;;;;;;;4.3;1.6;;;;;;;15.58;78.37109;942.0223;;;;
2022/10/25 07:56:46;;;;;;;2.1;0.9;;;;;;;15.64;76.14063;941.9272;;;;
2022/10/25 07:59:11;;;;;;;3.7;1.3;;;;;;;15.52;75.87988;941.8605;;;;
2022/10/25 08:01:40;;;;;;;1.7;0.9;;;;;;;15.34;77.47559;941.8503;;;;
2022/10/25 08:04:13;;;;;;;2.4;0.9;;;;;;;15.29;78.06641;941.8312;;;;
2022/10/25 08:06:38;;;;;;;1.9;0.8;;;;;;;15.4;76.2959;941.7996;;;;
2022/10/25 08:09:09;;;;;;;2.2;0.7;;;;;;;15.66;75.37207;941.7866;;;;
2022/10/25 08:11:37;;;;;;;1.9;0.9;;;;;;;15.75;73.11035;941.7469;;;;
2022/10/25 08:14:02;;;;;;;1.8;0.8;;;;;;;15.95;73.6875;941.7598;;;;
2022/10/25 08:16:27;;;;;;;1.9;0.7;;;;;;;16.32;70.98438;941.6535;;;;
2022/10/25 08:18:54;;;;;;;1;0.7;;;;;;;16.48;70.00391;941.6437;;;;
2022/10/25 08:21:19;;;;;;;1.2;0.7;;;;;;;16.77;70.30469;941.6387;;;;
2022/10/25 08:23:46;;;;;;;1.2;0.6;;;;;;;17.32;68.76953;941.5536;;;;
2022/10/25 08:26:11;;;;;;;3;1.2;;;;;;;17.94;66.69531;941.6252;;;;
2022/10/25 08:28:38;;;;;;;3.2;0.9;;;;;;;18.62;63.45996;941.6978;;;;
2022/10/25 08:31:03;;;;;;;1.2;0.9;;;;;;;18.6;62.06152;941.6372;;;;
2022/10/25 08:33:33;;;;;;;4.5;1.3;;;;;;;17.2;66.16504;941.6946;;;;
2022/10/25 08:35:58;;;;;;;0.9;0.9;;;;;;;16.67;69.44141;941.6662;;;;
2022/10/25 08:38:30;;;;;;;2.2;0.8;;;;;;;17.31;68.07031;941.7042;;;;
2022/10/25 08:40:57;;;;;;;2.2;0.7;;;;;;;17.18;68.51465;941.7488;;;;
2022/10/25 08:43:22;;;;;;;2.6;0.8;;;;;;;17.39;68.60547;941.68;;;;
2022/10/25 08:45:47;;;;;;;1.6;0.7;;;;;;;16.89;69.60547;941.7811;;;;
2022/10/25 08:48:13;;;;;;;2.2;0.8;;;;;;;16.97;68.94434;941.786;;;;
2022/10/25 08:50:47;;;;;;;2.1;0.8;;;;;;;17.03;69.11621;941.7414;;;;
2022/10/25 08:53:16;;;;;;;2.1;0.8;;;;;;;16.99;68.23047;941.7094;;;;
2022/10/25 08:55:41;;;;;;;2;0.7;;;;;;;15.95;72.82129;941.7051;;;;
2022/10/25 08:58:06;;;;;;;1.6;1.1;;;;;;;15.97;74.06055;941.7139;;;;
2022/10/25 09:00:35;;;;;;;1.3;0.9;;;;;;;15.99;72.27148;941.6552;;;;
2022/10/25 09:03:00;;;;;;;2.1;0.7;;;;;;;16.44;72.35742;941.6883;;;;
2022/10/25 09:05:25;;;;;;;1.3;0.7;;;;;;;16.88;72.91504;941.7079;;;;
2022/10/25 09:07:54;;;;;;;0.8;0.6;;;;;;;16.9;67.81055;941.6917;;;;
2022/10/25 09:10:22;;;;;;;1.3;0.9;;;;;;;17.14;68.66016;941.7097;;;;
2022/10/25 09:12:51;;;;;;;1.4;0.6;;;;;;;17.31;64.6377;941.6889;;;;
2022/10/25 09:15:17;;;;;;;1.3;0.7;;;;;;;17.02;65.42969;941.7012;;;;
2022/10/25 09:17:45;;;;;;;2;0.6;;;;;;;16.86;65.67383;941.6655;;;;
2022/10/25 09:20:09;;;;;;;2.1;1;;;;;;;16.6;66.09766;941.728;;;;
2022/10/25 09:22:40;;;;;;;1.1;0.7;;;;;;;16.41;67.6543;941.7003;;;;
2022/10/25 09:25:05;;;;;;;0.8;0.6;;;;;;;16.65;66.98438;941.6604;;;;
2022/10/25 09:27:30;;;;;;;2;0.9;;;;;;;16.81;66.81348;941.7051;;;;
2022/10/25 09:29:55;;;;;;;2.1;0.6;;;;;;;17.16;67.14355;941.6909;;;;
2022/10/25 09:32:22;;;;;;;1;0.8;;;;;;;17.7;64.47559;941.6369;;;;
2022/10/25 09:34:47;;;;;;;0.9;0.6;;;;;;;17.56;65.74414;941.5912;;;;
2022/10/25 09:37:15;;;;;;;0.6;0.6;;;;;;;17.68;64.7041;941.5728;;;;
2022/10/25 09:39:41;;;;;;;0.6;0.6;;;;;;;17.99;64.62305;941.5616;;;;
2022/10/25 09:42:07;;;;;;;1.3;0.7;;;;;;;18.09;63.69629;941.4655;;;;
2022/10/25 09:44:32;;;;;;;0.8;0.6;;;;;;;18.14;61.71777;941.4348;;;;
2022/10/25 09:46:57;;;;;;;1;0.6;;;;;;;18.25;62.2793;941.4908;;;;
2022/10/25 09:49:23;;;;;;;0.8;0.5;;;;;;;18.07;63.37988;941.5117;;;;
2022/10/25 09:51:48;;;;;;;1.1;0.5;;;;;;;17.96;61.13477;941.4606;;;;
2022/10/25 09:54:13;;;;;;;0.8;0.6;;;;;;;17.91;62.51074;941.5394;;;;
2022/10/25 09:56:38;;;;;;;1.7;0.7;;;;;;;17.95;63.38574;941.476;;;;
2022/10/25 09:59:03;;;;;;;0.6;0.5;;;;;;;17.78;62.79297;941.4417;;;;
2022/10/25 10:01:28;;;;;;;1.2;0.6;;;;;;;17.81;63.79395;941.4495;;;;
2022/10/25 10:03:55;;;;;;;0.8;0.4;;;;;;;17.85;63.92871;941.4548;;;;
2022/10/25 10:06:23;;;;;;;2.1;1;;;;;;;17.99;62.46289;941.3795;;;;
2022/10/25 10:08:51;;;;;;;0.6;0.6;;;;;;;17.98;59.92969;941.4055;;;;
2022/10/25 10:11:16;;;;;;;0.5;0.5;;;;;;;18.51;60.40918;941.3411;;;;
2022/10/25 10:13:41;;;;;;;1.8;0.6;;;;;;;18.99;57.90039;941.3209;;;;
2022/10/25 10:16:09;;;;;;;2.3;0.7;;;;;;;18.86;57.43066;941.3153;;;;
2022/10/25 10:18:35;;;;;;;2;0.8;;;;;;;18.93;59.65039;941.3123;;;;
2022/10/25 10:21:00;;;;;;;1.2;0.8;;;;;;;19.25;57.27148;941.2958;;;;
2022/10/25 10:23:28;;;;;;;2.2;0.7;;;;;;;19.47;57.05469;941.3031;;;;
2022/10/25 10:25:53;;;;;;;0.8;0.5;;;;;;;19.92;54.81641;941.2767;;;;
2022/10/25 10:28:18;;;;;;;0.6;0.6;;;;;;;20.45;54.24902;941.2352;;;;
2022/10/25 10:30:44;;;;;;;2.1;0.8;;;;;;;20.35;53.15234;941.2636;;;;
2022/10/25 10:33:15;;;;;;;1.1;0.4;;;;;;;20.54;54.58887;941.1448;;;;
2022/10/25 10:35:40;;;;;;;1.6;0.5;;;;;;;20.85;53.00195;941.1351;;;;
2022/10/25 10:38:11;;;;;;;1.8;0.7;;;;;;;20.92;53.63086;941.1753;;;;
2022/10/25 10:40:40;;;;;;;0.5;0.5;;;;;;;20.53;53.10352;941.1667;;;;
2022/10/25 10:43:12;;;;;;;1;0.9;;;;;;;20.55;53.53809;941.1139;;;;
2022/10/25 10:45:40;;;;;;;1.6;0.5;;;;;;;20.29;54.67383;941.0952;;;;
2022/10/25 10:48:09;;;;;;;1.5;0.7;;;;;;;20.38;55.02344;941.1021;;;;
2022/10/25 10:50:37;;;;;;;4.2;1.7;;;;;;;20.49;55.49414;941.0731;;;;
2022/10/25 10:53:08;;;;;;;4.1;1.6;;;;;;;20.53;52.98633;941.0253;;;;
2022/10/25 10:55:36;;;;;;;2.3;0.9;;;;;;;20.76;53.35352;941.0806;;;;
2022/10/25 10:58:04;;;;;;;2;0.5;;;;;;;21.27;51.36719;940.997;;;;
2022/10/25 11:00:32;;;;;;;0.7;0.5;;;;;;;21.57;50.41797;940.9378;;;;
2022/10/25 11:03:02;;;;;;;1.6;0.6;;;;;;;21.79;50.06934;940.9666;;;;
2022/10/25 11:05:27;;;;;;;3.1;1.2;;;;;;;22.29;48.6709;941.0085;;;;
2022/10/25 11:07:53;;;;;;;1.2;0.6;;;;;;;22.49;49.00977;940.9659;;;;
2022/10/25 11:10:18;;;;;;;2.3;0.7;;;;;;;22.24;49.53418;940.9686;;;;
2022/10/25 11:12:43;;;;;;;1.6;0.6;;;;;;;22.3;50.74805;940.9716;;;;
2022/10/25 11:15:08;;;;;;;2.7;0.7;;;;;;;22.4;49.70313;940.9872;;;;
2022/10/25 11:17:33;;;;;;;1.8;0.7;;;;;;;22.71;50.5127;940.9467;;;;
2022/10/25 11:19:58;;;;;;;1.8;0.6;;;;;;;23.88;46.57324;940.9556;;;;
2022/10/25 11:22:27;;;;;;;1.2;0.8;;;;;;;24.98;42.4873;940.8843;;;;
2022/10/25 11:24:55;;;;;;;1.6;0.6;;;;;;;25.21;41.44727;940.8105;;;;
2022/10/25 11:27:20;;;;;;;0.8;0.5;;;;;;;24.5;44.00879;940.8359;;;;
2022/10/25 11:29:48;;;;;;;1;0.5;;;;;;;25.25;42.26563;940.7976;;;;
2022/10/25 11:32:13;;;;;;;0.5;0.5;;;;;;;24.73;42.99512;940.812;;;;
2022/10/25 11:34:39;;;;;;;1.5;0.8;;;;;;;25.21;41.6709;940.7583;;;;
2022/10/25 11:37:04;;;;;;;1.3;0.8;;;;;;;25.75;41.26074;940.698;;;;
2022/10/25 11:39:35;;;;;;;2.4;0.9;;;;;;;26.23;39.13965;940.723;;;;
2022/10/25 11:42:07;;;;;;;1.1;0.6;;;;;;;26.86;37.50098;940.6641;;;;
2022/10/25 11:44:32;;;;;;;0.8;0.5;;;;;;;27.62;36.69727;940.6453;;;;
2022/10/25 11:46:57;;;;;;;1.3;0.9;;;;;;;28.92;34.16113;940.6397;;;;
2022/10/25 11:49:23;;;;;;;1.8;0.5;;;;;;;30.33;32.36914;940.5988;;;;
2022/10/25 11:51:47;;;;;;;0.7;0.7;;;;;;;30.64;31.85352;940.5815;;;;
2022/10/25 11:54:16;;;;;;;0.6;0.4;;;;;;;31.28;30.52246;940.5724;;;;
2022/10/25 11:56:42;;;;;;;1.3;0.6;;;;;;;31.63;29.0498;940.5631;;;;
2022/10/25 11:59:13;;;;;;;0.7;0.4;;;;;;;32.47;28.54004;940.51;;;;
2022/10/25 12:01:45;;;;;;;1;0.4;;;;;;;33.23;27.22949;940.5156;;;;
2022/10/25 12:04:10;;;;;;;0.8;0.4;;;;;;;33.3;27.17383;940.5353;;;;
2022/10/25 12:06:35;;;;;;;1.4;0.7;;;;;;;33.48;27.05273;940.5392;;;;
2022/10/25 12:09:00;;;;;;;2;0.6;;;;;;;32.79;28.00781;940.4914;;;;
2022/10/25 12:11:28;;;;;;;1.6;0.7;;;;;;;33.12;27.19922;940.3953;;;;
2022/10/25 12:13:53;;;;;;;1.9;0.7;;;;;;;33.53;27.35547;940.3586;;;;
2022/10/25 12:16:23;;;;;;;1.3;0.7;;;;;;;35.02;25.12891;940.3766;;;;
2022/10/25 12:18:52;;;;;;;1.1;0.6;;;;;;;35.17;24.99316;940.3365;;;;
2022/10/25 12:21:17;;;;;;;1.8;0.7;;;;;;;34.68;25.88184;940.3259;;;;
2022/10/25 12:23:45;;;;;;;1.7;0.7;;;;;;;34.74;24.96875;940.2646;;;;
2022/10/25 12:26:12;;;;;;;1.2;0.6;;;;;;;34.85;25.44531;940.2436;;;;
2022/10/25 12:28:37;;;;;;;1.5;0.6;;;;;;;36.12;23.61816;940.2397;;;;
2022/10/25 12:31:04;;;;;;;1.4;0.7;;;;;;;36.81;22.36914;940.2269;;;;
2022/10/25 12:33:30;;;;;;;1.9;0.7;;;;;;;35.79;23.89063;940.207;;;;
2022/10/25 12:35:55;;;;;;;1.3;0.6;;;;;;;36.99;23.46875;940.2586;;;;
2022/10/25 12:38:21;;;;;;;0.7;0.5;;;;;;;38.22;21.42969;940.1627;;;;
2022/10/25 12:40:46;;;;;;;1.5;0.8;;;;;;;38.74;21.19824;940.1926;;;;
2022/10/25 12:43:11;;;;;;;1.5;0.7;;;;;;;39.14;20.03613;940.1379;;;;
2022/10/25 12:45:38;;;;;;;0.8;0.6;;;;;;;38.78;20.78711;940.0742;;;;
2022/10/25 12:48:03;;;;;;;0.8;0.5;;;;;;;38.13;22.44531;940.1021;;;;
2022/10/25 12:50:35;;;;;;;1.4;0.7;;;;;;;38;22.24512;940.0923;;;;
2022/10/25 12:53:00;;;;;;;0.9;0.4;;;;;;;38.51;20.84766;940.0003;;;;
2022/10/25 12:55:29;;;;;;;1.3;0.5;;;;;;;37.43;22.09668;940.0358;;;;
2022/10/25 12:57:54;;;;;;;1.8;0.9;;;;;;;38.58;21.34961;939.9672;;;;
2022/10/25 13:00:19;;;;;;;0.6;0.6;;;;;;;39.01;20.26172;939.9785;;;;
2022/10/25 13:02:45;;;;;;;2.1;0.8;;;;;;;39.65;20.13086;939.9973;;;;
2022/10/25 13:06:01;;;;;;;0.8;0.7;;;;;;;40.58;18.90234;940.0013;;;;
2022/10/25 13:08:28;;;;;;;1.2;0.5;;;;;;;41.13;18.33789;940.0112;;;;
2022/10/25 13:10:51;;;;;;;1.1;0.5;;;;;;;41.02;18.56543;939.993;;;;
2022/10/25 13:13:19;;;;;;;0.9;0.7;;;;;;;40.78;19.03223;939.9821;;;;
2022/10/25 13:15:44;;;;;;;0.8;0.4;;;;;;;40.47;19.16602;939.9459;;;;
2022/10/25 13:18:09;;;;;;;0.9;0.7;;;;;;;39.93;19.7041;939.9221;;;;
2022/10/25 13:20:34;;;;;;;1.3;0.6;;;;;;;40.48;18.9707;939.8719;;;;
2022/10/25 13:22:59;;;;;;;1.2;0.6;;;;;;;39.64;19.98535;939.863;;;;
2022/10/25 13:25:24;;;;;;;2.1;0.5;;;;;;;39.22;20.14844;939.8186;;;;
2022/10/25 13:27:50;;;;;;;0.8;0.7;;;;;;;38.18;21.33008;939.7939;;;;
2022/10/25 13:30:17;;;;;;;1.6;0.7;;;;;;;38.73;21.07617;939.7639;;;;
2022/10/25 13:32:46;;;;;;;1.1;0.8;;;;;;;38.69;20.6123;939.7547;;;;
2022/10/25 13:35:11;;;;;;;0.8;0.7;;;;;;;38.33;20.64453;939.7361;;;;
2022/10/25 13:37:42;;;;;;;1.5;0.7;;;;;;;37.56;21.71484;939.7311;;;;
2022/10/25 13:40:07;;;;;;;1;0.8;;;;;;;35.91;23.49805;939.759;;;;
2022/10/25 13:42:34;;;;;;;1.4;0.8;;;;;;;36.65;22.95508;939.7722;;;;
2022/10/25 13:44:59;;;;;;;1;0.7;;;;;;;36.85;22.28711;939.8091;;;;
2022/10/25 13:47:27;;;;;;;1.8;0.8;;;;;;;36.4;22.94238;939.7908;;;;
2022/10/25 13:49:52;;;;;;;0.5;0.5;;;;;;;36.96;22.32813;939.7731;;;;
2022/10/25 13:52:17;;;;;;;2;0.8;;;;;;;37.4;21.9248;939.7871;;;;
2022/10/25 13:54:43;;;;;;;0.8;0.8;;;;;;;37.33;22.15234;939.7645;;;;
2022/10/25 13:57:08;;;;;;;1.8;0.8;;;;;;;37.16;21.82813;939.7712;;;;
2022/10/25 13:59:33;;;;;;;1.4;0.7;;;;;;;37.12;22.21484;939.7511;;;;
2022/10/25 14:02:01;;;;;;;1.2;0.7;;;;;;;37.24;21.89355;939.7659;;;;
2022/10/25 14:04:26;;;;;;;1.8;0.9;;;;;;;36.52;22.93555;939.7258;;;;
2022/10/25 14:06:57;;;;;;;0.8;0.6;;;;;;;36.56;22.90137;939.7332;;;;
2022/10/25 14:09:20;;;;;;;3;0.6;;;;;;;36.37;23.03711;939.7283;;;;
2022/10/25 14:11:45;;;;;;;1.7;1.1;;;;;;;35.89;23.58105;939.7051;;;;
2022/10/25 14:14:11;;;;;;;0.7;0.6;;;;;;;35.05;24.39453;939.6878;;;;
2022/10/25 14:16:40;;;;;;;1.4;0.7;;;;;;;35.16;24.4248;939.6997;;;;
2022/10/25 14:19:07;;;;;;;0.9;0.6;;;;;;;35.09;24.75879;939.714;;;;
2022/10/25 14:21:32;;;;;;;1.7;0.7;;;;;;;33.95;25.78027;939.6223;;;;
2022/10/25 14:23:57;;;;;;;1.2;0.5;;;;;;;32.78;27.51563;939.6336;;;;
2022/10/25 14:26:23;;;;;;;3.2;1;;;;;;;31.14;29.48535;939.5953;;;;
2022/10/25 14:28:48;;;;;;;0.8;0.6;;;;;;;30.08;31.03906;939.5927;;;;
2022/10/25 14:31:13;;;;;;;1;0.7;;;;;;;29.26;32.51953;939.5561;;;;
2022/10/25 14:33:38;;;;;;;0.6;0.5;;;;;;;28.78;33.78223;939.5699;;;;
2022/10/25 14:36:08;;;;;;;0.8;0.6;;;;;;;28.1;34.53906;939.6;;;;
2022/10/25 14:38:33;;;;;;;0.8;0.7;;;;;;;27.63;35.54785;939.632;;;;
2022/10/25 14:41:03;;;;;;;2.8;0.7;;;;;;;27.07;36.22559;939.5377;;;;
2022/10/25 14:43:28;;;;;;;1.3;1;;;;;;;26.43;37.7373;939.5862;;;;
2022/10/25 14:45:55;;;;;;;1.2;0.9;;;;;;;26.15;38.51855;939.5828;;;;
2022/10/25 14:48:20;;;;;;;2;0.7;;;;;;;25.83;39.37598;939.5515;;;;
2022/10/25 14:50:48;;;;;;;2.1;0.8;;;;;;;25.14;41.0752;939.5541;;;;
2022/10/25 14:53:13;;;;;;;0.9;0.7;;;;;;;24.73;41.74414;939.536;;;;
2022/10/25 14:55:40;;;;;;;1.4;0.7;;;;;;;23.87;44.26563;939.4807;;;;
2022/10/25 14:58:06;;;;;;;1.1;0.6;;;;;;;22.62;46.25391;939.4558;;;;
2022/10/25 15:00:31;;;;;;;1.3;0.8;;;;;;;22.31;47.3125;939.462;;;;
2022/10/25 15:02:57;;;;;;;2.7;1;;;;;;;22.48;47.53027;939.4525;;;;
2022/10/25 15:05:23;;;;;;;1.4;0.9;;;;;;;22.33;47.85352;939.443;;;;
2022/10/25 15:07:48;;;;;;;1.9;0.7;;;;;;;21.94;49.00879;939.4094;;;;
2022/10/25 15:10:15;;;;;;;2.2;0.9;;;;;;;21.46;50.89746;939.4508;;;;
2022/10/25 15:12:43;;;;;;;1.5;0.8;;;;;;;20.9;52.21289;939.4938;;;;
2022/10/25 15:15:13;;;;;;;2.9;0.7;;;;;;;20.52;53.70996;939.4737;;;;
2022/10/25 15:17:42;;;;;;;1.9;0.7;;;;;;;20.14;54.5625;939.5353;;;;
2022/10/25 15:20:17;;;;;;;3;0.9;;;;;;;19.54;56.03906;939.4996;;;;
2022/10/25 15:22:46;;;;;;;1.8;0.7;;;;;;;19.29;57.46387;939.5644;;;;
2022/10/25 15:25:11;;;;;;;1.6;1;;;;;;;19.14;58.0957;939.5527;;;;
2022/10/25 15:27:36;;;;;;;1.7;0.8;;;;;;;19;58.8457;939.5684;;;;
2022/10/25 15:30:03;;;;;;;1.2;0.9;;;;;;;18.58;60.23145;939.5383;;;;
2022/10/25 15:32:31;;;;;;;1.6;0.9;;;;;;;18.61;60.61914;939.5683;;;;
2022/10/25 15:34:57;;;;;;;3.4;1.1;;;;;;;18.44;60.56152;939.5658;;;;
2022/10/25 15:37:22;;;;;;;4.9;0.9;;;;;;;18.41;61.33594;939.5547;;;;
2022/10/25 15:39:47;;;;;;;2.3;0.8;;;;;;;18.27;61.80469;939.5784;;;;
2022/10/25 15:42:12;;;;;;;2.1;0.8;;;;;;;18.23;62.00879;939.5184;;;;
2022/10/25 15:44:37;;;;;;;2.8;1.6;;;;;;;17.99;62.43945;939.5334;;;;
2022/10/25 15:47:02;;;;;;;1.7;0.9;;;;;;;17.58;64.29492;939.627;;;;
2022/10/25 15:49:31;;;;;;;1.9;1.1;;;;;;;17.26;65.62891;939.6436;;;;
2022/10/25 15:51:56;;;;;;;1.1;0.8;;;;;;;17.15;65.9834;939.6165;;;;
2022/10/25 15:54:21;;;;;;;2.2;1.1;;;;;;;17.12;66.63965;939.6677;;;;
2022/10/25 15:56:46;;;;;;;2.8;1.3;;;;;;;17.13;66.79199;939.6997;;;;
2022/10/25 15:59:11;;;;;;;3.4;1.8;;;;;;;17.03;66.81055;939.7292;;;;